createdAt,value
2023-04-19T00:01:06.697Z,6.40
2023-04-19T00:03:35.148Z,6.40
2023-04-19T00:06:03.535Z,6.00
2023-04-19T00:08:31.602Z,6.50
2023-04-19T00:10:59.648Z,6.83
2023-04-19T00:13:27.752Z,6.43
2023-04-19T00:23:28.882Z,6.50
2023-04-19T00:25:56.912Z,6.77
2023-04-19T00:28:25.913Z,6.90
2023-04-19T00:30:53.986Z,6.10
2023-04-19T00:33:22.071Z,7.07
2023-04-19T00:35:50.165Z,7.17
2023-04-19T00:38:18.250Z,7.40
2023-04-19T00:40:47.685Z,6.70
2023-04-19T00:43:19.522Z,7.20
2023-04-19T00:45:49.153Z,7.30
2023-04-19T00:48:17.807Z,7.30
2023-04-19T00:50:46.559Z,6.57
2023-04-19T00:53:14.799Z,6.40
2023-04-19T00:55:44.216Z,6.97
2023-04-19T00:58:13.627Z,7.70
2023-04-19T01:00:42.065Z,7.47
2023-04-19T01:03:10.247Z,6.93
2023-04-19T01:05:38.443Z,7.83
2023-04-19T01:08:06.853Z,7.03
2023-04-19T01:10:35.085Z,7.83
2023-04-19T01:13:03.254Z,8.03
2023-04-19T01:19:23.944Z,6.37
2023-04-19T01:21:52.815Z,7.67
2023-04-19T01:24:22.379Z,6.97
2023-04-19T01:26:50.427Z,7.50
2023-04-19T01:29:18.829Z,8.40
2023-04-19T01:31:51.431Z,7.50
2023-04-19T01:34:19.505Z,7.87
2023-04-19T01:36:47.645Z,7.23
2023-04-19T01:39:16.109Z,7.67
2023-04-19T01:41:45.591Z,7.37
2023-04-19T01:44:14.098Z,7.83
2023-04-19T01:46:42.827Z,7.40
2023-04-19T01:49:11.055Z,8.17
2023-04-19T01:51:40.078Z,7.27
2023-04-19T01:54:08.176Z,8.23
2023-04-19T01:56:36.296Z,7.40
2023-04-19T01:59:05.786Z,7.60
2023-04-19T02:01:33.858Z,8.33
2023-04-19T02:04:03.359Z,8.07
2023-04-19T02:06:31.748Z,8.00
2023-04-19T02:08:59.866Z,7.73
2023-04-19T02:11:27.933Z,7.93
2023-04-19T02:13:55.979Z,8.53
2023-04-19T02:16:25.434Z,8.87
2023-04-19T02:18:53.597Z,8.20
2023-04-19T02:21:21.675Z,8.40
2023-04-19T02:23:49.728Z,8.47
2023-04-19T02:26:17.802Z,8.97
2023-04-19T02:28:45.915Z,8.70
2023-04-19T02:31:14.006Z,7.73
2023-04-19T02:33:43.470Z,8.17
2023-04-19T02:36:12.146Z,7.43
2023-04-19T02:38:40.251Z,7.83
2023-04-19T02:41:08.387Z,7.60
2023-04-19T02:43:36.456Z,8.00
2023-04-19T02:46:04.605Z,7.67
2023-04-19T02:48:32.776Z,7.50
2023-04-19T02:51:02.206Z,8.27
2023-04-19T02:54:13.717Z,8.47
2023-04-19T02:56:41.960Z,7.73
2023-04-19T02:59:10.020Z,7.60
2023-04-19T03:07:00.291Z,7.60
2023-04-19T03:09:28.489Z,6.93
2023-04-19T03:11:56.567Z,7.73
2023-04-19T03:14:24.694Z,7.57
2023-04-19T03:16:52.720Z,7.80
2023-04-19T03:19:20.794Z,7.20
2023-04-19T03:21:49.383Z,6.70
2023-04-19T03:24:20.170Z,6.37
2023-04-19T03:26:48.252Z,6.60
2023-04-19T03:29:16.323Z,6.10
2023-04-19T03:31:44.447Z,6.60
2023-04-19T03:38:03.100Z,5.70
2023-04-19T03:40:34.857Z,6.57
2023-04-19T03:43:02.892Z,6.43
2023-04-19T03:45:31.373Z,6.17
2023-04-19T03:48:02.071Z,5.80
2023-04-19T03:50:30.937Z,5.80
2023-04-19T03:52:58.977Z,6.60
2023-04-19T03:55:27.148Z,5.37
2023-04-19T03:57:56.603Z,4.80
2023-04-19T04:00:24.854Z,5.43
2023-04-19T04:02:53.360Z,5.23
2023-04-19T04:05:21.775Z,5.13
2023-04-19T04:07:49.908Z,5.10
2023-04-19T04:10:18.059Z,5.67
2023-04-19T04:12:46.136Z,5.00
2023-04-19T04:15:15.613Z,5.23
2023-04-19T04:17:43.734Z,5.00
2023-04-19T04:20:13.556Z,4.93
2023-04-19T04:22:43.646Z,4.90
2023-04-19T04:25:12.644Z,4.43
2023-04-19T04:27:40.825Z,4.63
2023-04-19T04:30:10.008Z,4.50
2023-04-19T04:32:41.107Z,4.80
2023-04-19T04:35:10.855Z,3.97
2023-04-19T04:37:40.312Z,4.77
2023-04-19T04:40:09.934Z,4.17
2023-04-19T04:42:38.733Z,4.87
2023-04-19T04:45:07.616Z,3.80
2023-04-19T04:47:36.087Z,4.90
2023-04-19T04:50:07.508Z,4.97
2023-04-19T04:52:35.609Z,4.63
2023-04-19T04:55:03.653Z,4.60
2023-04-19T04:57:31.720Z,4.37
2023-04-19T04:59:59.786Z,4.77
2023-04-19T05:02:27.915Z,4.93
2023-04-19T05:04:56.009Z,4.60
2023-04-19T05:07:25.569Z,4.53
2023-04-19T05:09:53.634Z,4.70
2023-04-19T05:12:21.703Z,4.30
2023-04-19T05:14:49.758Z,4.33
2023-04-19T05:17:17.816Z,4.50
2023-04-19T05:19:45.893Z,4.00
2023-04-19T05:22:14.328Z,4.30
2023-04-19T05:24:43.865Z,4.67
2023-04-19T05:27:12.288Z,5.17
2023-04-19T05:29:40.385Z,5.07
2023-04-19T05:32:08.756Z,4.37
2023-04-19T05:34:37.534Z,4.90
2023-04-19T05:37:06.239Z,4.40
2023-04-19T05:39:34.299Z,4.10
2023-04-19T05:42:03.765Z,3.87
2023-04-19T05:44:31.834Z,4.20
2023-04-19T05:46:59.895Z,4.33
2023-04-19T05:49:28.030Z,4.17
2023-04-19T05:51:57.071Z,4.43
2023-04-19T05:54:25.369Z,4.03
2023-04-19T05:56:53.412Z,4.47
2023-04-19T05:59:22.848Z,4.40
2023-04-19T06:01:51.013Z,3.57
2023-04-19T06:04:19.611Z,4.40
2023-04-19T06:06:48.036Z,4.33
2023-04-19T06:09:18.146Z,4.40
2023-04-19T06:11:50.622Z,3.67
2023-04-19T06:14:19.906Z,3.53
2023-04-19T06:16:49.506Z,3.80
2023-04-19T06:19:17.560Z,3.70
2023-04-19T06:21:46.048Z,3.67
2023-04-19T06:24:14.372Z,3.50
2023-04-19T06:26:43.325Z,4.80
2023-04-19T06:29:11.526Z,3.87
2023-04-19T06:31:39.741Z,4.33
2023-04-19T06:34:10.355Z,4.00
2023-04-19T06:36:38.486Z,4.00
2023-04-19T06:39:06.525Z,4.00
2023-04-19T06:41:34.691Z,4.17
2023-04-19T06:44:03.026Z,3.97
2023-04-19T06:46:31.133Z,3.60
2023-04-19T06:48:59.272Z,3.57
2023-04-19T06:51:28.890Z,3.80
2023-04-19T06:53:56.979Z,3.43
2023-04-19T06:56:40.608Z,3.23
2023-04-19T06:59:08.755Z,3.33
2023-04-19T07:01:36.973Z,3.23
2023-04-19T07:04:05.594Z,3.50
2023-04-19T07:06:35.468Z,3.10
2023-04-19T07:09:04.240Z,3.40
2023-04-19T07:11:32.855Z,3.17
2023-04-19T07:14:01.544Z,3.47
2023-04-19T07:16:30.001Z,3.53
2023-04-19T07:18:58.281Z,2.70
2023-04-19T07:21:30.560Z,3.10
2023-04-19T07:24:00.188Z,2.70
2023-04-19T07:26:28.381Z,3.30
2023-04-19T07:28:56.989Z,3.03
2023-04-19T07:31:25.974Z,2.80
2023-04-19T07:33:54.744Z,2.70
2023-04-19T07:36:22.795Z,2.47
2023-04-19T07:38:51.012Z,2.40
2023-04-19T07:41:20.767Z,2.93
2023-04-19T07:43:48.858Z,2.60
2023-04-19T07:46:17.149Z,2.37
2023-04-19T07:48:45.489Z,2.30
2023-04-19T07:51:14.775Z,2.40
2023-04-19T07:53:43.717Z,2.63
2023-04-19T07:56:13.221Z,2.13
2023-04-19T07:58:43.903Z,2.60
2023-04-19T08:01:12.238Z,2.80
2023-04-19T08:03:40.524Z,2.07
2023-04-19T08:06:09.328Z,2.05
2023-04-19T08:08:37.728Z,2.30
2023-04-19T08:11:06.336Z,1.98
2023-04-19T08:13:34.448Z,2.10
2023-04-19T08:16:32.224Z,2.33
2023-04-19T08:18:52.619Z,2.33
2023-04-19T08:21:24.080Z,1.97
2023-04-19T08:23:56.595Z,2.70
2023-04-19T08:26:24.671Z,2.50
2023-04-19T08:28:52.724Z,2.30
2023-04-19T08:31:22.172Z,2.17
2023-04-19T08:33:50.305Z,1.88
2023-04-19T08:36:22.367Z,2.05
2023-04-19T08:39:05.426Z,2.30
2023-04-19T08:41:36.899Z,2.13
2023-04-19T08:44:05.999Z,1.90
2023-04-19T08:46:35.742Z,2.37
2023-04-19T08:49:07.056Z,2.00
2023-04-19T08:51:36.015Z,2.25
2023-04-19T08:54:07.577Z,1.80
2023-04-19T08:56:36.158Z,1.67
2023-04-19T08:59:18.125Z,1.93
2023-04-19T09:01:48.020Z,1.87
2023-04-19T09:04:35.682Z,2.03
2023-04-19T09:07:04.726Z,1.73
2023-04-19T09:18:08.222Z,1.60
2023-04-19T09:20:39.934Z,1.10
2023-04-19T09:23:09.688Z,1.90
2023-04-19T09:26:06.001Z,1.20
2023-04-19T09:28:26.281Z,1.40
2023-04-19T09:31:05.748Z,1.20
2023-04-19T09:33:40.357Z,1.27
2023-04-19T09:36:09.585Z,0.97
2023-04-19T09:38:48.859Z,1.27
2023-04-19T09:41:18.460Z,1.20
2023-04-19T09:44:05.444Z,1.20
2023-04-19T09:46:36.346Z,1.33
2023-04-19T09:49:33.627Z,1.17
2023-04-19T09:52:14.668Z,1.17
2023-04-19T09:54:43.298Z,0.90
2023-04-19T09:57:11.756Z,1.40
2023-04-19T09:59:39.823Z,1.30
2023-04-19T10:02:08.711Z,1.30
2023-04-19T10:09:52.891Z,1.37
2023-04-19T10:14:58.415Z,1.10
2023-04-19T10:17:27.695Z,1.33
2023-04-19T10:20:06.733Z,1.10
2023-04-19T10:22:37.773Z,1.55
2023-04-19T10:25:16.930Z,1.57
2023-04-19T10:27:46.814Z,1.60
2023-04-19T10:30:19.574Z,1.10
2023-04-19T10:32:56.401Z,1.30
2023-04-19T10:35:29.398Z,1.50
2023-04-19T10:38:06.327Z,1.50
2023-04-19T10:41:01.371Z,1.20
2023-04-19T10:43:30.815Z,1.50
2023-04-19T10:46:02.434Z,1.63
2023-04-19T10:48:39.101Z,2.10
2023-04-19T10:51:15.560Z,1.60
2023-04-19T10:53:52.104Z,1.80
2023-04-19T10:56:22.019Z,1.47
2023-04-19T10:59:24.378Z,1.83
2023-04-19T11:01:55.703Z,1.50
2023-04-19T11:04:45.479Z,1.50
2023-04-19T11:07:15.338Z,1.67
2023-04-19T11:09:47.428Z,1.87
2023-04-19T11:12:17.130Z,1.60
2023-04-19T11:14:47.005Z,1.50
2023-04-19T11:17:19.409Z,1.47
2023-04-19T11:19:55.151Z,1.13
2023-04-19T11:22:31.853Z,1.17
2023-04-19T11:25:07.213Z,1.50
2023-04-19T11:27:35.387Z,1.57
2023-04-19T11:30:05.669Z,1.83
2023-04-19T11:32:33.830Z,1.30
2023-04-19T11:35:07.703Z,1.40
2023-04-19T11:37:38.548Z,1.50
2023-04-19T11:40:08.710Z,1.50
2023-04-19T11:42:37.333Z,1.70
2023-04-19T11:45:09.008Z,1.37
2023-04-19T11:47:49.153Z,1.43
2023-04-19T11:50:34.244Z,1.67
2023-04-19T11:53:12.684Z,1.77
2023-04-19T11:55:43.183Z,1.30
2023-04-19T11:58:23.521Z,1.50
2023-04-19T12:00:51.843Z,1.30
2023-04-19T12:03:26.161Z,1.30
2023-04-19T12:05:56.905Z,1.73
2023-04-19T12:08:37.318Z,1.40
2023-04-19T12:11:06.534Z,1.60
2023-04-19T12:13:36.529Z,1.40
2023-04-19T12:16:05.218Z,1.60
2023-04-19T12:18:48.758Z,1.70
2023-04-19T12:21:27.506Z,1.70
2023-04-19T12:23:58.557Z,1.60
2023-04-19T12:26:28.406Z,1.57
2023-04-19T12:28:56.588Z,1.63
2023-04-19T12:31:25.627Z,1.60
2023-04-19T12:33:53.776Z,1.30
2023-04-19T12:36:22.341Z,1.60
2023-04-19T12:38:50.459Z,1.53
2023-04-19T12:41:19.904Z,1.53
2023-04-19T12:43:47.961Z,1.50
2023-04-19T12:46:16.061Z,1.47
2023-04-19T12:48:44.339Z,1.50
2023-04-19T12:51:12.437Z,1.47
2023-04-19T12:53:42.501Z,1.73
2023-04-19T12:56:12.366Z,1.53
2023-04-19T12:58:41.809Z,1.70
2023-04-19T13:01:10.171Z,1.70
2023-04-19T13:03:39.104Z,2.50
2023-04-19T13:06:07.717Z,2.20
2023-04-19T13:08:44.799Z,1.97
2023-04-19T13:11:15.819Z,2.10
2023-04-19T13:13:45.427Z,2.17
2023-04-19T13:16:13.622Z,2.20
2023-04-19T13:18:41.804Z,2.30
2023-04-19T13:21:09.831Z,2.03
2023-04-19T13:23:37.927Z,2.00
2023-04-19T13:26:06.230Z,2.20
2023-04-19T13:28:35.745Z,2.00
2023-04-19T13:31:06.375Z,1.90
2023-04-19T13:33:34.772Z,2.30
2023-04-19T13:36:02.910Z,2.40
2023-04-19T13:38:31.039Z,2.73
2023-04-19T13:40:59.820Z,2.20
2023-04-19T13:43:28.212Z,2.20
2023-04-19T13:45:56.232Z,2.47
2023-04-19T13:48:27.465Z,2.40
2023-04-19T13:50:56.021Z,2.40
2023-04-19T13:53:24.820Z,2.37
2023-04-19T13:55:53.261Z,2.47
2023-04-19T13:58:21.340Z,2.03
2023-04-19T14:00:49.440Z,1.70
2023-04-19T14:03:17.638Z,2.43
2023-04-19T14:05:47.338Z,1.80
2023-04-19T14:08:15.413Z,1.70
2023-04-19T14:10:43.562Z,2.20
2023-04-19T14:13:11.607Z,1.60
2023-04-19T14:15:39.710Z,2.10
2023-04-19T14:18:07.983Z,2.07
2023-04-19T14:20:36.282Z,2.80
2023-04-19T14:23:05.754Z,2.20
2023-04-19T14:25:34.054Z,2.20
2023-04-19T14:28:02.121Z,1.80
2023-04-19T14:30:31.240Z,1.90
2023-04-19T14:32:59.508Z,2.27
2023-04-19T14:35:27.664Z,2.10
2023-04-19T14:37:55.866Z,2.40
2023-04-19T14:40:25.539Z,2.10
2023-04-19T14:42:54.264Z,2.03
2023-04-19T14:45:22.352Z,2.03
2023-04-19T14:47:50.481Z,2.37
2023-04-19T14:50:18.693Z,2.27
2023-04-19T14:52:46.883Z,2.13
2023-04-19T14:55:14.975Z,2.30
2023-04-19T14:57:44.445Z,2.23
2023-04-19T15:00:13.447Z,1.93
2023-04-19T15:02:41.669Z,1.97
2023-04-19T15:05:10.839Z,2.40
2023-04-19T15:07:39.681Z,2.30
2023-04-19T15:10:08.939Z,2.33
2023-04-19T15:12:37.026Z,2.33
2023-04-19T15:15:07.403Z,2.20
2023-04-19T15:17:35.847Z,2.57
2023-04-19T15:20:05.674Z,2.17
2023-04-19T15:22:34.064Z,1.80
2023-04-19T15:25:02.308Z,2.57
2023-04-19T15:27:31.354Z,2.30
2023-04-19T15:29:59.497Z,2.60
2023-04-19T15:32:31.021Z,2.40
2023-04-19T15:34:59.150Z,2.60
2023-04-19T15:37:27.601Z,2.47
2023-04-19T15:39:56.194Z,2.50
2023-04-19T15:42:24.301Z,2.80
2023-04-19T15:44:52.497Z,2.67
2023-04-19T15:47:20.611Z,2.37
2023-04-19T15:49:52.675Z,2.37
2023-04-19T15:52:20.825Z,2.40
2023-04-19T15:54:50.686Z,2.13
2023-04-19T15:57:18.819Z,2.30
2023-04-19T15:59:46.933Z,2.70
2023-04-19T16:02:15.117Z,1.90
2023-04-19T16:04:43.403Z,1.93
2023-04-19T16:07:12.946Z,2.07
2023-04-19T16:09:41.063Z,1.80
2023-04-19T16:12:09.443Z,1.83
2023-04-19T16:14:37.803Z,1.90
2023-04-19T16:17:06.295Z,2.27
2023-04-19T16:19:34.444Z,1.90
2023-04-19T16:22:05.316Z,2.23
2023-04-19T16:24:34.823Z,2.10
2023-04-19T16:27:02.967Z,2.10
2023-04-19T16:29:31.406Z,2.13
2023-04-19T16:31:59.515Z,2.97
2023-04-19T16:38:18.249Z,2.20
2023-04-19T16:40:48.722Z,2.10
2023-04-19T16:43:16.833Z,1.70
2023-04-19T16:45:45.074Z,1.67
2023-04-19T16:48:13.336Z,2.10
2023-04-19T16:50:41.443Z,1.90
2023-04-19T16:53:09.487Z,2.00
2023-04-19T16:55:39.060Z,3.73
2023-04-19T16:58:08.535Z,1.67
2023-04-19T17:00:36.965Z,1.90
2023-04-19T17:03:05.235Z,1.73
2023-04-19T17:05:33.456Z,1.70
2023-04-19T17:08:01.573Z,1.87
2023-04-19T17:10:29.941Z,1.80
2023-04-19T17:12:58.242Z,1.70
2023-04-19T17:15:27.865Z,1.43
2023-04-19T17:17:55.982Z,1.90
2023-04-19T17:20:24.081Z,1.60
2023-04-19T17:22:52.205Z,1.70
2023-04-19T17:25:22.229Z,1.83
2023-04-19T17:27:50.865Z,1.80
2023-04-19T17:30:19.048Z,1.70
2023-04-19T17:32:48.630Z,1.50
2023-04-19T17:35:17.169Z,1.50
2023-04-19T17:37:45.409Z,1.30
2023-04-19T17:40:13.913Z,1.50
2023-04-19T17:42:42.041Z,1.43
2023-04-19T17:45:11.289Z,1.20
2023-04-19T17:47:39.550Z,1.27
2023-04-19T17:50:11.313Z,1.20
2023-04-19T17:52:39.801Z,1.60
2023-04-19T17:55:08.471Z,1.00
2023-04-19T17:57:36.540Z,1.20
2023-04-19T18:00:06.613Z,1.30
2023-04-19T18:02:35.001Z,1.27
2023-04-19T18:05:03.729Z,1.63
2023-04-19T18:07:33.196Z,1.20
2023-04-19T18:10:01.295Z,1.20
2023-04-19T18:12:29.354Z,1.80
2023-04-19T18:14:57.518Z,1.70
2023-04-19T18:17:25.634Z,1.90
2023-04-19T18:19:53.826Z,1.73
2023-04-19T18:22:21.998Z,1.80
2023-04-19T18:24:53.465Z,1.70
2023-04-19T18:27:21.549Z,1.80
2023-04-19T18:29:51.930Z,1.87
2023-04-19T18:32:21.822Z,1.43
2023-04-19T18:34:50.031Z,1.80
2023-04-19T18:37:18.869Z,1.97
2023-04-19T18:39:47.159Z,1.80
2023-04-19T18:42:16.558Z,1.67
2023-04-19T18:44:53.617Z,1.97
2023-04-19T18:47:22.682Z,1.87
2023-04-19T18:50:03.722Z,1.90
2023-04-19T18:52:33.052Z,1.83
2023-04-19T18:55:01.216Z,1.70
2023-04-19T18:57:34.444Z,2.03
2023-04-19T19:00:05.411Z,1.80
2023-04-19T19:02:36.296Z,2.03
2023-04-19T19:05:07.543Z,1.77
2023-04-19T19:07:37.794Z,2.17
2023-04-19T19:10:17.121Z,2.00
2023-04-19T19:12:48.278Z,1.77
2023-04-19T19:15:16.467Z,2.00
2023-04-19T19:17:49.260Z,2.67
2023-04-19T19:20:18.599Z,2.13
2023-04-19T19:22:46.704Z,2.40
2023-04-19T19:25:14.803Z,1.67
2023-04-19T19:28:02.300Z,1.80
2023-04-19T19:30:34.538Z,1.97
2023-04-19T19:33:04.822Z,1.67
2023-04-19T19:35:33.238Z,1.90
2023-04-19T19:38:01.405Z,1.90
2023-04-19T19:40:32.381Z,1.90
2023-04-19T19:43:01.336Z,1.70
2023-04-19T19:45:29.984Z,2.03
2023-04-19T19:48:00.601Z,2.17
2023-04-19T19:53:01.519Z,2.30
2023-04-19T19:55:30.174Z,2.27
2023-04-19T20:00:42.852Z,2.73
2023-04-19T20:03:15.070Z,2.30
2023-04-19T20:05:43.732Z,1.90
2023-04-19T20:08:13.646Z,2.07
2023-04-19T20:10:43.877Z,2.17
2023-04-19T20:13:13.185Z,1.80
2023-04-19T20:15:42.054Z,2.00
2023-04-19T20:18:10.142Z,2.20
2023-04-19T20:20:40.095Z,2.47
2023-04-19T20:23:08.240Z,1.60
2023-04-19T20:25:36.350Z,2.23
2023-04-19T20:28:04.902Z,1.83
2023-04-19T20:30:33.221Z,2.20
2023-04-19T20:33:01.580Z,2.20
2023-04-19T20:35:30.384Z,2.10
2023-04-19T20:38:02.675Z,1.93
2023-04-19T20:40:32.095Z,1.93
2023-04-19T20:43:00.293Z,2.17
2023-04-19T20:45:28.708Z,2.03
2023-04-19T20:47:58.515Z,2.03
2023-04-19T20:50:26.944Z,2.17
2023-04-19T20:52:55.121Z,2.60
2023-04-19T20:55:24.798Z,1.97
2023-04-19T20:57:52.925Z,2.00
2023-04-19T21:00:21.533Z,2.20
2023-04-19T21:02:50.226Z,2.27
2023-04-19T21:05:18.436Z,2.63
2023-04-19T21:07:46.533Z,2.73
2023-04-19T21:10:16.432Z,2.23
2023-04-19T21:12:45.969Z,2.50
2023-04-19T21:15:14.092Z,2.20
2023-04-19T21:17:42.539Z,1.97
2023-04-19T21:20:14.255Z,2.17
2023-04-19T21:22:43.244Z,1.67
2023-04-19T21:25:12.301Z,2.00
2023-04-19T21:27:41.698Z,1.70
2023-04-19T21:30:12.481Z,2.03
2023-04-19T21:32:40.705Z,1.97
2023-04-19T21:35:09.629Z,1.90
2023-04-19T21:37:38.538Z,2.07
2023-04-19T21:40:07.827Z,1.80
2023-04-19T21:42:36.615Z,2.00
2023-04-19T21:45:05.450Z,1.80
2023-04-19T21:47:34.956Z,1.87
2023-04-19T21:50:03.037Z,1.80
2023-04-19T21:52:31.187Z,1.70
2023-04-19T21:54:59.283Z,2.07
2023-04-19T21:57:27.486Z,1.87
2023-04-19T21:59:55.586Z,1.90
2023-04-19T22:02:23.956Z,2.03
2023-04-19T22:04:53.840Z,1.70
2023-04-19T22:07:23.906Z,1.60
2023-04-19T22:09:52.314Z,2.30
2023-04-19T22:12:20.430Z,1.83
2023-04-19T22:14:48.598Z,1.50
2023-04-19T22:17:18.556Z,1.70
2023-04-19T22:19:46.992Z,1.93
2023-04-19T22:22:16.716Z,1.60
2023-04-19T22:24:56.907Z,1.77
2023-04-19T22:27:26.466Z,1.43
2023-04-19T22:29:54.727Z,2.10
2023-04-19T22:32:23.112Z,1.60
2023-04-19T22:34:51.266Z,1.40
2023-04-19T22:37:20.712Z,1.80
2023-04-19T22:39:48.867Z,1.90
2023-04-19T22:42:17.003Z,1.70
2023-04-19T22:44:45.139Z,1.67
2023-04-19T22:47:13.253Z,1.43
2023-04-19T22:49:43.489Z,1.50
2023-04-19T22:52:12.774Z,1.60
2023-04-19T22:54:42.823Z,1.60
2023-04-19T22:57:12.021Z,1.70
2023-04-19T22:59:40.338Z,1.90
2023-04-19T23:02:08.459Z,1.63
2023-04-19T23:04:38.029Z,1.40
2023-04-19T23:07:06.296Z,1.43
2023-04-19T23:09:34.397Z,1.60
2023-04-19T23:12:03.924Z,1.50
2023-04-19T23:14:32.926Z,1.20
2023-04-19T23:17:02.769Z,1.50
2023-04-19T23:19:31.474Z,1.60
2023-04-19T23:21:59.518Z,1.60
2023-04-19T23:24:27.629Z,1.50
2023-04-19T23:26:55.691Z,1.60
2023-04-19T23:29:25.210Z,1.33
2023-04-19T23:31:53.285Z,1.20
2023-04-19T23:34:21.417Z,1.90
2023-04-19T23:36:49.484Z,1.50
2023-04-19T23:39:17.722Z,1.40
2023-04-19T23:41:46.059Z,1.60
2023-04-19T23:44:14.127Z,1.60
2023-04-19T23:46:43.680Z,1.63
2023-04-19T23:49:12.103Z,1.27
2023-04-19T23:51:40.271Z,1.60
2023-04-19T23:54:08.325Z,2.10
2023-04-19T23:56:36.420Z,1.60
2023-04-19T23:59:04.527Z,1.77
